Tiempo atmosférico en la estación meteorológica de Trujillo, Cáceres (503 m.)



Fecha
DESCASC
Temp. máxima en grados centígrados (hora)
DESCASC
Temp. mínima en grados centígrados (hora)
DESCASC
Temp. media en grados centígrados
DESCASC
Racha de viento máxima en m/sg (hora)
DESCASC
Velocidad máxima media en intervalos de 10 minutos(hora)
DESCASC
Precipitaciones diarias en mm
DESCASC
Precipitaciones de 00:00 a 06:00 en mm
DESCASC
Precipitaciones de 06:00 a 12:00 en mm
DESCASC
Precipitaciones de 12:00 a 18:00 en mm
DESCASC
Precipitaciones de 18:00 a 24:00 en mm
DESCASC
23-06-2019 32.1 (17:30) 16.5 (06:20) 24.3 6.94 (18:50) 4.72 (20:20) 0 0 0 0 0
22-06-2019 33 (19:10) 16.5 (06:40) 24.8 7.5 (14:10) 4.44 (21:20) 0 0 0 0 0
21-06-2019 30.6 (18:10) 12.2 (07:00) 21.4 8.33 (00:30) 5.28 (00:30) 0 0 0 0 0
20-06-2019 27.8 (19:10) 15 (00:00) 21.4 9.17 (22:10) 5.83 (22:10) 0 0 0 0 0
19-06-2019 26.9 (18:00) 14.9 (00:00) 20.9 8.33 (16:40) 5 (18:50) 0 0 0 0 0
18-06-2019 27.8 (17:50) 15.2 (00:00) 21.5 12.78 (15:10) 5.83 (17:00) 0 0 0 0 0
17-06-2019 31 (17:30) 14.9 (00:00) 22.9 10.28 (15:30) 5.28 (16:00) 0 0 0 0 0
16-06-2019 29.8 (18:40) 12.7 (00:00) 21.2 6.39 (18:00) 3.61 (19:40) 0 0 0 0 0
15-06-2019 26.5 (19:30) 10.1 (00:00) 18.3 6.94 (15:10) 3.33 (00:10) 0 0 0 0 0
14-06-2019 23.4 (16:30) 10.5 (00:00) 16.9 12.5 (18:20) 8.33 (18:20) 0 0 0 0 0
13-06-2019 26.7 (20:00) 10.3 (00:00) 18.5 10 (16:50) 5.83 (23:59) 0 0 0 0 0
12-06-2019 28 (18:40) 9.1 (00:00) 18.6 8.06 (19:30) 4.44 (23:50) 0 0 0 0 0
11-06-2019 24.8 (17:50) 12.2 (00:00) 18.5 12.5 (12:30) 7.5 (11:40) 0 0 0 0 0
10-06-2019 27.1 (18:40) 11.5 (00:00) 19.3 9.72 (16:50) 5.83 (20:20) 0 0 0 0 0
09-06-2019 26.4 (18:00) 11.9 (00:00) 19.1 11.11 (19:20) 6.94 (21:20) 0 0 0 0 0
08-06-2019 28.4 (18:50) 9.1 (00:00) 18.8 7.78 (16:50) 4.17 (23:40) 0 0 0 0 0
07-06-2019 22.9 (18:50) 7.9 (00:00) 15.4 13.06 (00:30) 7.78 (00:40) 0.7 0.7 0 0 0
06-06-2019 24 (18:10) 8.3 (00:00) 16.2 12.5 (20:40) 6.39 (22:00) 0 0 0 0 0
05-06-2019 22.7 (18:40) 9.1 (00:00) 15.9 12.22 (15:00) 7.78 (00:20) 0 0 0 0 0
04-06-2019 26.5 (15:30) 15.4 (00:00) 20.9 14.44 (23:20) 9.72 (23:20) 0 0 0 0 0
03-06-2019 33.6 (18:00) 18 (00:00) 25.8 11.39 (15:30) 6.94 (20:10) 0 0 0 0 0
02-06-2019 35.9 (18:20) 20 (00:00) 28 9.17 (21:40) 6.67 (21:00) 0 0 0 0 0
01-06-2019 35.9 (19:10) 20.1 (00:00) 28 7.5 (17:00) 5 (07:50) 0 0 0 0 0
31-05-2019 34.2 (19:00) 16.9 (00:00) 25.6 7.22 (17:50) 3.61 (03:50) 0 0 0 0 0
30-05-2019 32.7 (18:40) 16.1 (00:00) 24.4 9.72 (14:00) 4.17 (13:20) 0 0 0 0 0
29-05-2019 30 (19:00) 14.8 (00:00) 22.4 10 (14:10) 5.28 (12:30) 0 0 0 0 0
28-05-2019 30.7 (18:10) 14.8 (00:00) 22.8 9.72 (19:10) 5.28 (19:00) 0 0 0 0 0

Gráficas

Temp. máximas Temp. mínimas Temp. medias Precipitaciones Rachas de viento máximas Velocidades máximas media en intervalos de 10 minutos

Datos horarios

Fecha y hora oficial Temperatura (ºC) Velocidad del viento (km/h) Dirección del viento Racha (km/h) Dirección de racha Precipitación (mm) Presión (hPa) Tendencia (hPa) Humedad (%)
2019-06-26 23:00:00 26.5 6 Sudoeste 12 Sudoeste 0 -- -- 35
2019-06-26 22:00:00 28.5 6 Sudoeste 20 Sudeste 0 -- -- 33
2019-06-26 21:00:00 30.2 11 Sudeste 26 Sudeste 0 -- -- 33
2019-06-26 20:00:00 30.5 14 Sudeste 30 Sudeste 0 -- -- 32
2019-06-26 19:00:00 31.5 9 Sur 36 Sur 0 -- -- 32
2019-06-26 18:00:00 31 13 Sur 34 Sudeste 0 -- -- 33
2019-06-26 17:00:00 30.5 14 Sur 35 Sur 0 -- -- 33
2019-06-26 16:00:00 30.2 11 Sur 31 Sudeste 0 -- -- 34
2019-06-26 15:00:00 28.4 9 Sudeste 30 Sudeste 0 -- -- 36
2019-06-26 14:00:00 27.2 13 Sur 28 Sudeste 0 -- -- 40
2019-06-26 13:00:00 26.4 11 Sudeste 24 Sudeste 0 -- -- 42
2019-06-26 12:00:00 25 10 Sudeste 27 Sudeste 0 -- -- 46
2019-06-26 11:00:00 23.7 12 Sudeste 26 Sudeste 0 -- -- 49
2019-06-26 10:00:00 22.9 14 Sudeste 24 Sudeste 0 -- -- 55
2019-06-26 09:00:00 20.3 9 Sudeste 21 Sudeste 0 -- -- 65
2019-06-26 08:00:00 19.2 12 Sudeste 21 Sudeste 0 -- -- 68
2019-06-26 07:00:00 18.9 10 Sudeste 23 Sudeste 0 -- -- 65
2019-06-26 06:00:00 19.6 7 Sudeste 13 Sudeste 0 -- -- 61
2019-06-26 05:00:00 20.1 5 Sur 12 Sudeste 0 -- -- 52
2019-06-26 04:00:00 22 4 Sur 15 Sudeste 0 -- -- 44
2019-06-26 03:00:00 23 6 Sudeste 17 Sudeste 0 -- -- 40
2019-06-26 02:00:00 23.8 6 Sudeste 10 Sur 0 -- -- 39
2019-06-26 01:00:00 24.8 3 Sur 11 Sudoeste 0 -- -- 37
2019-06-26 00:00:00 25.5 5 Sudoeste 12 Sudoeste 0 -- -- 37
2019-06-25 23:00:00 27 3 Sur 9 Sur 0 -- -- 36
2019-06-25 22:00:00 28.9 4 Sur 17 Sur 0 -- -- 33
2019-06-25 21:00:00 31.4 6 Sur 24 Sudeste 0 -- -- 31
2019-06-25 20:00:00 31.6 9 Sur 29 Sudeste 0 -- -- 30
2019-06-25 19:00:00 32.6 9 Sur 32 Sur 0 -- -- 30
2019-06-25 18:00:00 32.7 10 Sur 30 Sur 0 -- -- 30
2019-06-25 17:00:00 30.3 8 Sudeste 28 Sur 0 -- -- 33
2019-06-25 16:00:00 30 12 Sur 30 Sudeste 0 -- -- 33
2019-06-25 15:00:00 29.4 9 Sur 24 Sur 0 -- -- 35
2019-06-25 14:00:00 27.2 11 Sur 26 Sudeste 0 -- -- 39
2019-06-25 13:00:00 27.7 7 Sur 26 Sudeste 0 -- -- 40
2019-06-25 12:00:00 25.9 8 Sudeste 21 Sur 0 -- -- 42
2019-06-25 11:00:00 24.8 5 Sur 14 Sur 0 -- -- 43
2019-06-25 10:00:00 23.1 5 Sudoeste 12 Sudoeste 0 -- -- 44
2019-06-25 09:00:00 19.5 4 Este 8 Este 0 -- -- 48
2019-06-25 08:00:00 17.5 4 Noroeste 8 Noroeste 0 -- -- 51
2019-06-25 07:00:00 17.4 2 Sudoeste 6 Sudoeste 0 -- -- 51
2019-06-25 06:00:00 17.3 0 Calma 4 Oeste 0 -- -- 52
2019-06-25 05:00:00 17 0 Calma 4 Oeste 0 -- -- 53
2019-06-25 04:00:00 16.4 0 Calma 5 Sudoeste 0 -- -- 54
2019-06-25 03:00:00 16.1 0 Calma 7 Oeste 0 -- -- 54
2019-06-25 02:00:00 16 4 Oeste 7 Oeste 0 -- -- 53
2019-06-25 01:00:00 16.8 4 Sudoeste 9 Sudoeste 0 -- -- 53
2019-06-25 00:00:00 17.8 0 Calma 7 Oeste 0 -- -- 54
2019-06-24 23:00:00 17.7 3 Oeste 14 Oeste 0 -- -- 53
2019-06-24 22:00:00 18.2 8 Oeste 27 Oeste 0 -- -- 50
2019-06-24 21:00:00 21.2 10 Noroeste 26 Oeste 0 -- -- 45
2019-06-24 20:00:00 21.4 22 Oeste 39 Oeste 0 -- -- 42
2019-06-24 19:00:00 24.8 22 Oeste 39 Oeste 0 -- -- 39
2019-06-24 18:00:00 26.5 20 Oeste 40 Oeste 0 -- -- 40
2019-06-24 17:00:00 27.6 24 Oeste 36 Oeste 0 -- -- 39
2019-06-24 16:00:00 27.1 15 Oeste 34 Sudoeste 0 -- -- 41
2019-06-24 15:00:00 28.3 8 Sur 24 Sudeste 0 -- -- 39
2019-06-24 14:00:00 28.3 7 Sur 24 Sudoeste 0 -- -- 38
2019-06-24 13:00:00 27.2 7 Sur 22 Sudeste 0 -- -- 41
2019-06-24 12:00:00 26.4 5 Sudeste 15 Sudeste 0 -- -- 47
2019-06-24 11:00:00 24 4 Sur 9 Sudoeste 0 -- -- 54
2019-06-24 10:00:00 22.9 2 Sur 9 Sudeste 0 -- -- 62
2019-06-24 09:00:00 21.3 4 Este 8 Este 0 -- -- 68
2019-06-24 08:00:00 19.6 0 Calma 6 Oeste 0 -- -- 74
2019-06-24 07:00:00 19.6 4 Sudoeste 7 Oeste 0 -- -- 71
2019-06-24 06:00:00 20.1 3 Sudoeste 10 Sudoeste 0 -- -- 69
2019-06-24 05:00:00 20.3 4 Sudoeste 9 Sudoeste 0 -- -- 68
2019-06-24 04:00:00 20.8 4 Sudoeste 9 Sudoeste 0 -- -- 65
2019-06-24 03:00:00 21.5 3 Sudoeste 12 Oeste 0 -- -- 61
2019-06-24 02:00:00 22.7 6 Oeste 18 Oeste 0 -- -- 58
2019-06-24 01:00:00 23.1 12 Oeste 24 Oeste 0 -- -- 53
2019-06-24 00:00:00 24 8 Oeste 13 Oeste 0 -- -- 33
2019-06-23 23:00:00 25 2 Oeste 12 Oeste 0 -- -- 26
2019-06-23 22:00:00 25.7 4 Oeste 24 Sudoeste 0 -- -- 24
2019-06-23 21:00:00 26.7 17 Oeste 25 Oeste 0 -- -- 23
2019-06-23 20:00:00 28.1 17 Oeste 23 Oeste 0 -- -- 21
2019-06-23 19:00:00 30.3 10 Sudoeste 25 Sudoeste 0 -- -- 21
2019-06-23 18:00:00 30.4 7 Sur 23 Sudoeste 0 -- -- 22
2019-06-23 17:00:00 30.7 9 Sur 24 Sudeste 0 -- -- 23
2019-06-23 16:00:00 30.4 5 Sur 23 Sudeste 0 -- -- 25
2019-06-23 15:00:00 29.3 9 Sudeste 24 Sudeste 0 -- -- 25
2019-06-23 14:00:00 29.4 8 Sur 24 Sudoeste 0 -- -- 26
2019-06-23 13:00:00 27.1 8 Sudeste 22 Sudeste 0 -- -- 26
2019-06-23 12:00:00 26.7 6 Sudeste 19 Sur 0 -- -- 26
2019-06-23 11:00:00 25 7 Sur 17 Sudeste 0 -- -- 30
2019-06-23 10:00:00 24.7 5 Sur 14 Sudoeste 0 -- -- 31
2019-06-23 09:00:00 22.6 2 Sudeste 11 Este 0 -- -- 33
2019-06-23 08:00:00 18.7 2 Este 7 Este 0 -- -- 41
2019-06-23 07:00:00 17 3 Sudeste 7 Este 0 -- -- 39
2019-06-23 06:00:00 16.8 3 Sudeste 4 Sudoeste 0 -- -- 36
2019-06-23 05:00:00 18.2 2 Sudoeste 5 Oeste 0 -- -- 32
2019-06-23 04:00:00 19.9 3 Sudoeste 12 Sudoeste 0 -- -- 28
2019-06-23 03:00:00 20.5 6 Sudoeste 11 Sudoeste 0 -- -- 26
2019-06-23 02:00:00 20.8 5 Sudoeste 9 Sudoeste 0 -- -- 24
2019-06-23 01:00:00 21.7 5 Sudoeste 9 Sudoeste 0 -- -- 24
2019-06-23 00:00:00 23.8 2 Oeste 14 Oeste 0 -- -- 22
2019-06-22 23:00:00 25.4 12 Sudoeste 16 Sudoeste 0 -- -- 23
2019-06-22 22:00:00 27.5 12 Sudoeste 27 Sudoeste 0 -- -- 22
2019-06-22 21:00:00 29.9 14 Sudoeste 21 Sudoeste 0 -- -- 23
2019-06-22 20:00:00 31.6 9 Sudoeste 24 Sudoeste 0 -- -- 20
2019-06-22 19:00:00 32.3 7 Oeste 24 Sudoeste 0 -- -- 20
2019-06-22 18:00:00 31.2 9 Sudeste 19 Sudeste 0 -- -- 22
2019-06-22 17:00:00 31.4 4 Sur 27 Sudeste 0 -- -- 23
2019-06-22 16:00:00 31.3 5 Sur 22 Sur 0 -- -- 23
2019-06-22 15:00:00 30 4 Sudoeste 27 Sudoeste 0 -- -- 26
2019-06-22 14:00:00 29.7 6 Sur 22 Sudeste 0 -- -- 28
2019-06-22 13:00:00 28.2 8 Sudeste 21 Sudoeste 0 -- -- 30
2019-06-22 12:00:00 27.4 6 Sur 16 Sudoeste 0 -- -- 32
2019-06-22 11:00:00 25.8 4 Sur 15 Sudeste 0 -- -- 35
2019-06-22 10:00:00 23.7 4 Sudeste 10 Sudeste 0 -- -- 41
2019-06-22 09:00:00 21.3 0 Calma 9 Sudeste 0 -- -- 50
2019-06-22 08:00:00 17.5 4 Sur 12 Sur 0 -- -- 60
2019-06-22 07:00:00 17 6 Sur 14 Sur 0 -- -- 59
2019-06-22 06:00:00 16.9 0 Calma 9 Sur 0 -- -- 57
2019-06-22 05:00:00 17.8 5 Sudeste 8 Sudeste 0 -- -- 52
2019-06-22 04:00:00 18.6 4 Sudeste 8 Sudeste 0 -- -- 47
2019-06-22 03:00:00 19.1 4 Sur 9 Sur 0 -- -- 41
2019-06-22 02:00:00 20.2 3 Sur 10 Sudoeste 0 -- -- 36
2019-06-22 01:00:00 21.4 0 Calma 7 Este 0 -- -- 33
2019-06-22 00:00:00 23.2 0 Calma 6 Noroeste 0 -- -- 31
2019-06-21 23:00:00 24 0 Calma 13 Oeste 0 -- -- 29
2019-06-21 22:00:00 25.8 9 Oeste 21 Oeste 0 -- -- 26
2019-06-21 21:00:00 27.9 13 Oeste 26 Oeste 0 -- -- 24
2019-06-21 20:00:00 29.4 13 Oeste 24 Sudoeste 0 -- -- 24
2019-06-21 19:00:00 29.8 7 Oeste 24 Noroeste 0 -- -- 24
2019-06-21 18:00:00 30 7 Sudoeste 26 Oeste 0 -- -- 25
2019-06-21 17:00:00 28.9 10 Oeste 28 Oeste 0 -- -- 26
2019-06-21 16:00:00 28.1 10 Noroeste 24 Sudoeste 0 -- -- 27
2019-06-21 15:00:00 26.6 6 Oeste 25 Sudoeste 0 -- -- 31
2019-06-21 14:00:00 25.3 7 Oeste 26 Oeste 0 -- -- 34
2019-06-21 13:00:00 23.6 12 Oeste 25 Oeste 0 -- -- 41
2019-06-21 12:00:00 22.8 7 Oeste 20 Sudoeste 0 -- -- 45
2019-06-21 11:00:00 20.1 5 Sudoeste 15 Sudoeste 0 -- -- 52
2019-06-21 10:00:00 18 5 Sur 16 Sudoeste 0 -- -- 58
2019-06-21 09:00:00 15 5 Sudeste 11 Sudeste 0 -- -- 70
2019-06-21 08:00:00 13.3 6 Sudeste 12 Sudeste 0 -- -- 78
2019-06-21 07:00:00 12.3 6 Sudeste 12 Sudeste 0 -- -- 78
2019-06-21 06:00:00 13 5 Sur 12 Sur 0 -- -- 75
2019-06-21 05:00:00 13.6 7 Sudeste 12 Sudeste 0 -- -- 69
2019-06-21 04:00:00 14.8 5 Sur 13 Sudoeste 0 -- -- 64
2019-06-21 03:00:00 15.8 6 Sudoeste 25 Sudoeste 0 -- -- 60
2019-06-21 02:00:00 16.9 13 Sudoeste 23 Sudoeste 0 -- -- 57
2019-06-21 01:00:00 17.7 15 Sudoeste 30 Sudoeste 0 -- -- 53
2019-06-21 00:00:00 18.9 19 Sudoeste 31 Sudoeste 0 -- -- 47
2019-06-20 23:00:00 20.7 21 Sudoeste 33 Sudoeste 0 -- -- 41
2019-06-20 22:00:00 23 19 Sudoeste 27 Oeste 0 -- -- 33
2019-06-20 21:00:00 25.6 13 Sudoeste 24 Sudoeste 0 -- -- 29
2019-06-20 20:00:00 26.9 12 Sudoeste 24 Sudoeste 0 -- -- 26
2019-06-20 19:00:00 27 10 Sudoeste 30 Sudoeste 0 -- -- 27
2019-06-20 18:00:00 27.3 11 Sudoeste 30 Sudoeste 0 -- -- 29
2019-06-20 17:00:00 26.6 10 Sudoeste 33 Oeste 0 -- -- 31
2019-06-20 16:00:00 25.7 10 Sur 31 Sur 0 -- -- 34
2019-06-20 15:00:00 25.2 13 Sudoeste 24 Sudoeste 0 -- -- 35
2019-06-20 14:00:00 25 7 Sudoeste 20 Sudoeste 0 -- -- 38
2019-06-20 13:00:00 24 4 Sur 19 Oeste 0 -- -- 41
2019-06-20 12:00:00 22.9 5 Sudoeste 15 Sudoeste 0 -- -- 44
2019-06-20 11:00:00 23.1 4 Sur 15 Sudoeste 0 -- -- 45
2019-06-20 10:00:00 20.3 5 Sudoeste 10 Sur 0 -- -- 55
2019-06-20 09:00:00 18.4 2 Sudoeste 8 Sur 0 -- -- 63
2019-06-20 08:00:00 16.2 4 Sudeste 9 Sudeste 0 -- -- 72
2019-06-20 07:00:00 15.2 5 Sudeste 8 Sur 0 -- -- 74
2019-06-20 06:00:00 15.9 3 Sur 8 Sur 0 -- -- 71
2019-06-20 05:00:00 16.3 3 Sur 8 Sudoeste 0 -- -- 69
2019-06-20 04:00:00 16.9 4 Sur 7 Sur 0 -- -- 65
2019-06-20 03:00:00 17.6 0 Calma 14 Sudoeste 0 -- -- 61
2019-06-20 02:00:00 18.2 10 Oeste 18 Sudoeste 0 -- -- 57
2019-06-20 01:00:00 19.3 11 Sudoeste 15 Sudoeste 0 -- -- 53
2019-06-20 00:00:00 20.2 8 Sudoeste 14 Sudoeste 0 -- -- 49
2019-06-19 23:00:00 20.9 5 Sudoeste 16 Sudoeste 0 -- -- 45
2019-06-19 22:00:00 23 5 Sudoeste 22 Sudoeste 0 -- -- 40
2019-06-19 21:00:00 23.8 14 Sudoeste 22 Sudoeste 0 -- -- 37
2019-06-19 20:00:00 24.7 8 Sudoeste 25 Oeste 0 -- -- 36
2019-06-19 19:00:00 25.1 12 Sudoeste 28 Sudoeste 0 -- -- 35
2019-06-19 18:00:00 26.9 8 Sudoeste 26 Sudoeste 0 -- -- 33
2019-06-19 17:00:00 25.2 9 Sudoeste 30 Oeste 0 -- -- 36
2019-06-19 16:00:00 24.9 11 Sur 26 Sudoeste 0 -- -- 37
2019-06-19 15:00:00 24.2 11 Sudoeste 23 Sudoeste 0 -- -- 37
2019-06-19 14:00:00 22.8 7 Sudoeste 23 Sudoeste 0 -- -- 41
2019-06-19 13:00:00 22.8 9 Sur 21 Sur 0 -- -- 42
2019-06-19 12:00:00 20.8 4 Sur 15 Sur 0 -- -- 53
2019-06-19 11:00:00 18.6 5 Sur 16 Sur 0 -- -- 64
2019-06-19 10:00:00 18 5 Sur 18 Sur 0 -- -- 70
2019-06-19 09:00:00 17.3 5 Sur 15 Sur 0 -- -- 74
2019-06-19 08:00:00 16.8 4 Sur 17 Sur 0 -- -- 77
2019-06-19 07:00:00 15.2 9 Sudoeste 18 Sudoeste 0 -- -- 81
2019-06-19 06:00:00 15.4 3 Sudoeste 11 Sur 0 -- -- 76
2019-06-19 05:00:00 16.3 3 Sur 14 Sudoeste 0 -- -- 68
2019-06-19 04:00:00 17.1 5 Sudoeste 14 Sur 0 -- -- 63
2019-06-19 03:00:00 17.6 5 Sudoeste 11 Sudoeste 0 -- -- 57
2019-06-19 02:00:00 18.4 4 Sudoeste 18 Sudoeste 0 -- -- 54
2019-06-19 01:00:00 19.4 14 Sudoeste 23 Oeste 0 -- -- 54
2019-06-19 00:00:00 20.6 7 Sudoeste 23 Sudoeste 0 -- -- 55
2019-06-18 23:00:00 21.3 9 Sudoeste 24 Sudoeste 0 -- -- 52
2019-06-18 22:00:00 22.9 10 Sudoeste 32 Sudoeste 0 -- -- 47
2019-06-18 21:00:00 25 15 Sudoeste 39 Sudoeste 0 -- -- 41
2019-06-18 20:00:00 25.7 13 Sudoeste 34 Sudoeste 0 -- -- 39
2019-06-18 19:00:00 25.6 14 Sur 39 Sudoeste 0 -- -- 36
2019-06-18 18:00:00 26.3 14 Sur 39 Sudoeste 0 -- -- 35
2019-06-18 17:00:00 26.9 21 Sudoeste 44 Sudoeste 0 -- -- 38
2019-06-18 16:00:00 26 16 Sudoeste 46 Sudoeste 0 -- -- 37
2019-06-18 15:00:00 26.7 15 Sudoeste 36 Sudoeste 0 -- -- 36
2019-06-18 14:00:00 25.2 10 Sur 32 Sudoeste 0 -- -- 32
2019-06-18 13:00:00 23.6 10 Sur 27 Sur 0 -- -- 30
2019-06-18 12:00:00 23 10 Sur 31 Sudeste 0 -- -- 30
2019-06-18 11:00:00 21.2 13 Sudeste 28 Sudeste 0 -- -- 34
2019-06-18 10:00:00 20.4 4 Sur 13 Sudeste 0 -- -- 40
2019-06-18 09:00:00 19.2 4 Sudoeste 12 Sur 0 -- -- 40
2019-06-18 08:00:00 17.2 3 Sur 9 Sur 0 -- -- 43
2019-06-18 07:00:00 15.6 4 Sur 10 Sur 0 -- -- 47
2019-06-18 06:00:00 16.4 3 Sur 8 Sur 0 -- -- 46
2019-06-18 05:00:00 17.5 0 Calma 11 Sur 0 -- -- 41
2019-06-18 04:00:00 18.8 5 Sudeste 9 Sudeste 0 -- -- 36
2019-06-18 03:00:00 20.4 3 Sur 9 Sudeste 0 -- -- 30
2019-06-18 02:00:00 21.8 6 Sudeste 12 Sur 0 -- -- 26
2019-06-18 01:00:00 22.9 5 Sur 17 Sur 0 -- -- 24
2019-06-18 00:00:00 24.6 8 Sur 24 Sur 0 -- -- 23
2019-06-17 23:00:00 25.3 8 Sudoeste 16 Sudoeste 0 -- -- 23
2019-06-17 22:00:00 26.1 6 Sudoeste 21 Sudoeste 0 -- -- 21
2019-06-17 21:00:00 27.6 17 Sudoeste 30 Sudeste 0 -- -- 19
2019-06-17 20:00:00 29.5 11 Sudeste 26 Sur 0.1 -- -- 18
2019-06-17 19:00:00 30.5 10 Sur 28 Sudeste 0 -- -- 18
2019-06-17 18:00:00 30.6 11 Sur 30 Sudoeste 0 -- -- 19
2019-06-17 17:00:00 28.9 14 Sudeste 37 Sudeste 0 -- -- 21
2019-06-17 16:00:00 28.5 19 Sudeste 37 Sudeste 0 -- -- 22
2019-06-17 15:00:00 27.6 12 Sur 36 Sur 0 -- -- 22
2019-06-17 14:00:00 26.6 14 Sudeste 32 Este 0 -- -- 22
2019-06-17 13:00:00 25.5 15 Sudeste 32 Sudeste 0 -- -- 28
2019-06-17 12:00:00 24.1 15 Sudeste 27 Sudeste 0 -- -- 38
2019-06-17 11:00:00 23 9 Sur 23 Sudeste 0 -- -- 40
2019-06-17 10:00:00 23 4 Sur 12 Sudeste 0 -- -- 41
2019-06-17 09:00:00 20.7 2 Sudeste 9 Sudeste 0 -- -- 46
2019-06-17 08:00:00 17 4 Sudeste 9 Sudeste 0 -- -- 57
2019-06-17 07:00:00 15.1 4 Sudeste 9 Sudeste 0 -- -- 56
2019-06-17 06:00:00 15.4 3 Sudeste 7 Sudeste 0 -- -- 52
2019-06-17 05:00:00 16.4 4 Sudeste 7 Sur 0 -- -- 47
2019-06-17 04:00:00 17.3 0 Calma 13 Sudoeste 0 -- -- 46
2019-06-17 03:00:00 18.3 3 Sur 13 Sudoeste 0 -- -- 38
2019-06-17 02:00:00 18.9 3 Sur 6 Sur 0 -- -- 33
2019-06-17 01:00:00 20.5 2 Sudoeste 23 Sudoeste 0 -- -- 28
2019-06-17 00:00:00 21.9 5 Sudeste 9 Sudeste 0 -- -- 26
2019-06-16 23:00:00 22.9 3 Sur 12 Sudoeste 0 -- -- 25
2019-06-16 22:00:00 25.1 5 Sudoeste 15 Sudoeste 0 -- -- 22
2019-06-16 21:00:00 28.2 10 Sudoeste 23 Sudoeste 0 -- -- 19
2019-06-16 20:00:00 29.7 7 Sudoeste 23 Sudoeste 0 -- -- 18
2019-06-16 19:00:00 29.1 8 Sudoeste 21 Sudoeste 0 -- -- 15
2019-06-16 18:00:00 27.4 9 Sur 23 Sur 0 -- -- 19
2019-06-16 17:00:00 27.5 10 Sudeste 22 Sudeste 0 -- -- 22
2019-06-16 16:00:00 27.7 7 Sudeste 21 Sudeste 0 -- -- 21
2019-06-16 15:00:00 28.3 9 Este 21 Sudeste 0 -- -- 22
2019-06-16 14:00:00 27.5 7 Sudeste 20 Sudeste 0 -- -- 24
2019-06-16 13:00:00 26.7 7 Sudeste 21 Sudeste 0 -- -- 25
2019-06-16 12:00:00 24.9 0 Calma 12 Sudoeste 0 -- -- 29
2019-06-16 11:00:00 23.9 0 Calma 9 Noroeste 0 -- -- 30
2019-06-16 10:00:00 22.3 0 Calma 5 Noroeste 0 -- -- 35
2019-06-16 09:00:00 18.7 0 Calma 0 Calma 0 -- -- 42
2019-06-16 08:00:00 15 0 Calma 5 Sur 0 -- -- 47
2019-06-16 07:00:00 12.9 3 Sudeste 5 Sudeste 0 -- -- 47
2019-06-16 06:00:00 13.4 2 Sudeste 7 Sur 0 -- -- 46
2019-06-16 05:00:00 13.7 3 Sur 5 Sur 0 -- -- 43
2019-06-16 04:00:00 14.2 0 Calma 3 Sudeste 0 -- -- 43
2019-06-16 03:00:00 14.9 0 Calma 4 Nordeste 0 -- -- 40
2019-06-16 02:00:00 16.2 0 Calma 3 Este 0 -- -- 38
2019-06-16 01:00:00 17.7 0 Calma 7 Sudeste 0 -- -- 35
2019-06-16 00:00:00 18.5 5 Sur 9 Sur 0 -- -- 33
2019-06-15 23:00:00 19.8 4 Sudeste 8 Sur 0 -- -- 26
2019-06-15 22:00:00 23 4 Sudoeste 9 Sudoeste 0 -- -- 24
2019-06-15 21:00:00 25.4 3 Sudoeste 14 Sudoeste 0 -- -- 23
2019-06-15 20:00:00 25.7 7 Oeste 17 Oeste 0 -- -- 22
2019-06-15 19:00:00 25.8 10 Oeste 23 Sudoeste 0 -- -- 23
2019-06-15 18:00:00 24.6 6 Este 17 Sudoeste 0 -- -- 24
2019-06-15 17:00:00 24.7 8 Oeste 24 Oeste 0 -- -- 25
2019-06-15 16:00:00 23.3 4 Sudeste 25 Noroeste 0 -- -- 27
2019-06-15 15:00:00 22.6 6 Noroeste 18 Noroeste 0 -- -- 30
2019-06-15 14:00:00 20.8 4 Norte 18 Oeste 0 -- -- 32
2019-06-15 13:00:00 20.1 7 Oeste 18 Oeste 0 -- -- 35
2019-06-15 12:00:00 18.6 8 Oeste 21 Oeste 0 -- -- 40
2019-06-15 11:00:00 17.5 4 Oeste 16 Oeste 0 -- -- 44
2019-06-15 10:00:00 15.8 2 Sudoeste 8 Sudoeste 0 -- -- 53
2019-06-15 09:00:00 13 3 Sudoeste 10 Oeste 0 -- -- 65
2019-06-15 08:00:00 11.3 4 Sur 8 Sur 0 -- -- 71
2019-06-15 07:00:00 10.1 2 Sudeste 9 Sudeste 0 -- -- 71
2019-06-15 06:00:00 10.6 3 Sur 8 Sudoeste 0 -- -- 68
2019-06-15 05:00:00 11.1 3 Sudoeste 14 Sudoeste 0 -- -- 63
2019-06-15 04:00:00 11.8 8 Sudoeste 13 Sudoeste 0 -- -- 59
2019-06-15 03:00:00 12.3 6 Sudoeste 17 Sudoeste 0 -- -- 56
2019-06-15 02:00:00 12.8 6 Sudoeste 17 Sudoeste 0 -- -- 52
2019-06-15 01:00:00 13.3 10 Sudoeste 18 Oeste 0 -- -- 50
2019-06-15 00:00:00 14.6 13 Oeste 26 Sudoeste 0 -- -- 47
2019-06-14 23:00:00 15.6 17 Sudoeste 29 Sudoeste 0 -- -- 44
2019-06-14 22:00:00 16.9 17 Sudoeste 33 Sudoeste 0 -- -- 40
2019-06-14 21:00:00 18.1 23 Sudoeste 40 Sudoeste 0 -- -- 36
2019-06-14 20:00:00 20.1 19 Sudoeste 40 Sudoeste 0 -- -- 33
2019-06-14 19:00:00 21.2 21 Sudoeste 45 Sudoeste 0 -- -- 32
2019-06-14 18:00:00 20.9 18 Sudoeste 40 Sudoeste 0 -- -- 30
2019-06-14 17:00:00 23 19 Sudoeste 41 Sudoeste 0 -- -- 30
2019-06-14 16:00:00 22.6 13 Sudoeste 33 Sur 0 -- -- 31
2019-06-14 15:00:00 21.1 12 Sudoeste 39 Sudoeste 0 -- -- 33
2019-06-14 14:00:00 19.8 15 Sudoeste 34 Sudoeste 0 -- -- 34
2019-06-14 13:00:00 19.5 12 Sur 32 Sur 0 -- -- 36
2019-06-14 12:00:00 18.3 12 Sur 32 Sur 0 -- -- 37
2019-06-14 11:00:00 16 17 Sudeste 39 Sudeste 0 -- -- 45
2019-06-14 10:00:00 14.5 14 Sudeste 27 Sudeste 0 -- -- 52
2019-06-14 09:00:00 13.1 12 Sudeste 26 Sudeste 0 -- -- 55
2019-06-14 08:00:00 12.5 10 Sudeste 16 Sudeste 0 -- -- 56
2019-06-14 07:00:00 10.9 8 Sudeste 14 Sudeste 0 -- -- 62
2019-06-14 06:00:00 10.7 2 Sudeste 10 Sudeste 0 -- -- 60
2019-06-14 05:00:00 11.6 5 Sur 13 Sur 0 -- -- 58
2019-06-14 04:00:00 12.5 3 Sur 12 Sudoeste 0 -- -- 53
2019-06-14 03:00:00 13.2 5 Sudoeste 16 Sudoeste 0 -- -- 50
2019-06-14 02:00:00 14.4 4 Sudoeste 21 Sudoeste 0 -- -- 46
2019-06-14 01:00:00 16.2 15 Sudoeste 34 Oeste 0 -- -- 41
2019-06-14 00:00:00 18.3 21 Sudoeste 30 Oeste 0 -- -- 30
2019-06-13 23:00:00 20.9 15 Sudoeste 24 Sudoeste 0 -- -- 24
2019-06-13 22:00:00 22.8 3 Sur 9 Sudoeste 0 -- -- 22
2019-06-13 21:00:00 23.6 5 Sudoeste 26 Sudoeste 0 -- -- 21
2019-06-13 20:00:00 26.3 13 Sudoeste 31 Sudoeste 0 -- -- 20
2019-06-13 19:00:00 26.2 13 Sudoeste 32 Sudoeste 0 -- -- 20
2019-06-13 18:00:00 25.6 11 Sudoeste 28 Sudoeste 0 -- -- 22
2019-06-13 17:00:00 25.7 13 Sudoeste 36 Sudoeste 0 -- -- 22
2019-06-13 16:00:00 25.1 10 Sur 35 Sur 0 -- -- 24
2019-06-13 15:00:00 25 10 Sudoeste 29 Sudoeste 0 -- -- 25
2019-06-13 14:00:00 21.9 12 Sudeste 28 Sudeste 0 -- -- 26
2019-06-13 13:00:00 20.6 10 Sur 23 Sudeste 0 -- -- 30
2019-06-13 12:00:00 18.5 9 Sudeste 26 Sudeste 0 -- -- 38
2019-06-13 11:00:00 16.3 11 Sudeste 28 Sudeste 0 -- -- 43
2019-06-13 10:00:00 14.8 14 Sudeste 28 Sudeste 0 -- -- 46
2019-06-13 09:00:00 12.7 10 Sudeste 19 Sudeste 0 -- -- 53
2019-06-13 08:00:00 11.5 0 Calma 8 Este 0 -- -- 54
2019-06-13 07:00:00 10.5 4 Este 8 Este 0 -- -- 54
2019-06-13 06:00:00 11.3 3 Sudoeste 15 Sudoeste 0 -- -- 50
2019-06-13 05:00:00 12.8 2 Sur 10 Sur 0 -- -- 47
2019-06-13 04:00:00 13.3 3 Sudeste 9 Sur 0 -- -- 46
2019-06-13 03:00:00 15.1 3 Sur 8 Sudoeste 0 -- -- 43
2019-06-13 02:00:00 15.7 2 Sur 15 Sudoeste 0 -- -- 41
2019-06-13 01:00:00 16.9 9 Sudoeste 20 Oeste 0 -- -- 36
2019-06-13 00:00:00 18.5 16 Sudoeste 24 Sudoeste 0 -- -- 24
2019-06-12 23:00:00 20 12 Sudoeste 17 Oeste 0 -- -- 19
2019-06-12 22:00:00 22.9 6 Sudoeste 16 Sudoeste 0 -- -- 17
2019-06-12 21:00:00 26.5 9 Sudoeste 22 Sudoeste 0 -- -- 16
2019-06-12 20:00:00 27.8 8 Sudoeste 29 Sur 0 -- -- 16
2019-06-12 19:00:00 28 7 Sudoeste 28 Sudeste 0 -- -- 17
2019-06-12 18:00:00 27.1 8 Sur 26 Sur 0 -- -- 17
2019-06-12 17:00:00 27.3 10 Sudoeste 26 Sudoeste 0 -- -- 17
2019-06-12 16:00:00 26 3 Sur 26 Oeste 0 -- -- 18
2019-06-12 15:00:00 25.4 6 Sudoeste 23 Sudoeste 0 -- -- 18
2019-06-12 14:00:00 24.1 4 Sudoeste 26 Sudoeste 0 -- -- 19
2019-06-12 13:00:00 23.8 6 Sudoeste 18 Sudoeste 0 -- -- 22
2019-06-12 12:00:00 23 4 Sur 17 Sudoeste 0 -- -- 23
2019-06-12 11:00:00 21.2 3 Sur 12 Sur 0 -- -- 26
2019-06-12 10:00:00 19.1 3 Oeste 8 Sudoeste 0 -- -- 29
2019-06-12 09:00:00 15.9 0 Calma 3 Oeste 0 -- -- 33
2019-06-12 08:00:00 12.4 0 Calma 6 Sudeste 0 -- -- 37
2019-06-12 07:00:00 9.3 0 Calma 6 Sudeste 0 -- -- 37
2019-06-12 06:00:00 10.7 0 Calma 4 Este 0 -- -- 35
2019-06-12 05:00:00 11.8 4 Oeste 9 Oeste 0 -- -- 33
2019-06-12 04:00:00 12 0 Calma 8 Nordeste 0 -- -- 30
2019-06-12 03:00:00 12.8 3 Nordeste 8 Nordeste 0 -- -- 29
2019-06-12 02:00:00 14.3 4 Norte 10 Norte 0 -- -- 26
2019-06-12 01:00:00 14.9 4 Norte 13 Norte 0 -- -- 26
2019-06-12 00:00:00 16.6 5 Norte 16 Noroeste 0 -- -- 24
2019-06-11 23:00:00 18.3 10 Noroeste 19 Noroeste 0 -- -- 23
2019-06-11 22:00:00 20.1 7 Norte 23 Norte 0 -- -- 21
2019-06-11 21:00:00 22.9 14 Norte 25 Norte 0 -- -- 20
2019-06-11 20:00:00 24 10 Norte 28 Norte 0 -- -- 21
2019-06-11 19:00:00 24 11 Nordeste 32 Noroeste 0 -- -- 23
2019-06-11 18:00:00 24.4 10 Noroeste 39 Noroeste 0 -- -- 24
2019-06-11 17:00:00 24.2 22 Noroeste 43 Noroeste 0 -- -- 25
2019-06-11 16:00:00 23.8 22 Noroeste 44 Noroeste 0 -- -- 26
2019-06-11 15:00:00 23.9 17 Noroeste 38 Oeste 0 -- -- 29
2019-06-11 14:00:00 22.7 22 Oeste 41 Oeste 0 -- -- 30
2019-06-11 13:00:00 22.1 21 Noroeste 45 Oeste 0 -- -- 32
2019-06-11 12:00:00 21.2 24 Oeste 42 Oeste 0 -- -- 35
2019-06-11 11:00:00 19.3 22 Oeste 39 Oeste 0 -- -- 42
2019-06-11 10:00:00 17.2 25 Oeste 39 Oeste 0 -- -- 47
2019-06-11 09:00:00 15.7 23 Oeste 33 Oeste 0 -- -- 50
2019-06-11 08:00:00 13.3 15 Sudoeste 21 Sudoeste 0 -- -- 56
2019-06-11 07:00:00 12.5 13 Sudoeste 24 Sudoeste 0 -- -- 56
2019-06-11 06:00:00 12.8 15 Sudoeste 25 Sudoeste 0 -- -- 53
2019-06-11 05:00:00 13.1 13 Sudoeste 22 Sudoeste 0 -- -- 50
2019-06-11 04:00:00 13.7 12 Sudoeste 19 Sudoeste 0 -- -- 48
2019-06-11 03:00:00 14.6 11 Sudoeste 21 Sudoeste 0 -- -- 47
2019-06-11 02:00:00 16.1 13 Sudoeste 22 Sudoeste 0 -- -- 43
2019-06-11 01:00:00 17.4 15 Sudoeste 25 Sudoeste 0 -- -- 38
2019-06-11 00:00:00 19 17 Sudoeste 29 Oeste 0 -- -- 32
2019-06-10 23:00:00 20.6 14 Oeste 27 Oeste 0 -- -- 24
2019-06-10 22:00:00 22.8 11 Oeste 22 Noroeste 0 -- -- 21
2019-06-10 21:00:00 24.7 13 Oeste 33 Oeste 0 -- -- 19
2019-06-10 20:00:00 25.4 18 Oeste 32 Oeste 0 -- -- 19
2019-06-10 19:00:00 26.3 19 Oeste 31 Oeste 0 -- -- 20
2019-06-10 18:00:00 26.8 14 Oeste 32 Sudoeste 0 -- -- 20
2019-06-10 17:00:00 25.7 17 Oeste 35 Sudoeste 0 -- -- 22
2019-06-10 16:00:00 25.4 19 Oeste 29 Oeste 0 -- -- 23
2019-06-10 15:00:00 24.9 9 Oeste 28 Oeste 0 -- -- 24
2019-06-10 14:00:00 23.8 15 Oeste 32 Noroeste 0 -- -- 27
2019-06-10 13:00:00 23 12 Oeste 24 Noroeste 0 -- -- 30
2019-06-10 12:00:00 21 15 Oeste 33 Oeste 0 -- -- 35
2019-06-10 11:00:00 19.5 11 Oeste 23 Sudoeste 0 -- -- 42
2019-06-10 10:00:00 16.7 8 Oeste 17 Sudoeste 0 -- -- 50
2019-06-10 09:00:00 14.5 7 Sudoeste 13 Sudoeste 0 -- -- 56
2019-06-10 08:00:00 12.8 4 Sur 11 Sudoeste 0 -- -- 63
2019-06-10 07:00:00 11.6 4 Sur 10 Sudoeste 0 -- -- 64
2019-06-10 06:00:00 12.2 3 Sur 9 Sur 0 -- -- 62
2019-06-10 05:00:00 12.7 2 Sur 11 Sudoeste 0 -- -- 59
2019-06-10 04:00:00 13.3 6 Sudoeste 22 Sudoeste 0 -- -- 55
2019-06-10 03:00:00 14.2 9 Sudoeste 19 Sudoeste 0 -- -- 51
2019-06-10 02:00:00 15 12 Sudoeste 21 Sudoeste 0 -- -- 47
2019-06-10 01:00:00 16.4 14 Sudoeste 24 Sudoeste 0 -- -- 41
2019-06-10 00:00:00 17.6 18 Sudoeste 28 Sudoeste 0 -- -- 36
2019-06-09 23:00:00 19.1 18 Sudoeste 33 Oeste 0 -- -- 31
2019-06-09 22:00:00 20.7 22 Oeste 38 Sudoeste 0 -- -- 27
2019-06-09 21:00:00 23.5 21 Oeste 36 Oeste 0 -- -- 24
2019-06-09 20:00:00 24 24 Oeste 40 Sudoeste 0 -- -- 22
2019-06-09 19:00:00 25.4 20 Oeste 38 Oeste 0 -- -- 21
2019-06-09 18:00:00 26.1 20 Sudoeste 38 Sudoeste 0 -- -- 22
2019-06-09 17:00:00 26.1 14 Sudoeste 36 Sudoeste 0 -- -- 24
2019-06-09 16:00:00 25.4 15 Oeste 32 Oeste 0 -- -- 24
2019-06-09 15:00:00 24.8 12 Sudoeste 30 Oeste 0 -- -- 24
2019-06-09 14:00:00 23.3 15 Sudoeste 31 Sudoeste 0 -- -- 23
2019-06-09 13:00:00 22.2 7 Sudoeste 23 Sudoeste 0 -- -- 23
2019-06-09 12:00:00 19.6 9 Sudoeste 20 Oeste 0 -- -- 30
2019-06-09 11:00:00 19.1 7 Sudoeste 19 Sur 0 -- -- 29
2019-06-09 10:00:00 16.7 8 Sur 18 Sur 0 -- -- 37
2019-06-09 09:00:00 13.1 5 Sur 15 Sur 0 -- -- 45
2019-06-09 08:00:00 12.2 5 Sur 13 Sur 0 -- -- 45
2019-06-09 07:00:00 12 4 Sudoeste 13 Sudeste 0 -- -- 43
2019-06-09 06:00:00 12.7 7 Sudeste 12 Sur 0 -- -- 48
2019-06-09 05:00:00 13.5 6 Sudeste 10 Sudeste 0 -- -- 47
2019-06-09 04:00:00 14.2 3 Sur 10 Sur 0 -- -- 47
2019-06-09 03:00:00 15.2 5 Sur 22 Oeste 0 -- -- 45
2019-06-09 02:00:00 16.4 11 Oeste 19 Oeste 0 -- -- 43
2019-06-09 01:00:00 17.8 13 Sudoeste 19 Sudoeste 0 -- -- 36
2019-06-09 00:00:00 19.1 12 Sudoeste 21 Oeste 0 -- -- 23
2019-06-08 23:00:00 20.5 9 Oeste 22 Oeste 0 -- -- 19
2019-06-08 22:00:00 22.2 3 Sudeste 8 Sudoeste 0 -- -- 18
2019-06-08 21:00:00 24 4 Sudoeste 17 Sudoeste 0 -- -- 17
2019-06-08 20:00:00 25.7 9 Sudoeste 21 Sudoeste 0 -- -- 15
2019-06-08 19:00:00 26.9 8 Sur 23 Sudoeste 0 -- -- 14
2019-06-08 18:00:00 27.4 6 Sudeste 24 Sudoeste 0 -- -- 16
2019-06-08 17:00:00 27 6 Sur 28 Este 0 -- -- 15
2019-06-08 16:00:00 26.7 6 Sudeste 26 Sur 0 -- -- 16
2019-06-08 15:00:00 26 6 Sudoeste 22 Sur 0 -- -- 17
2019-06-08 14:00:00 25 5 Sudeste 27 Sudeste 0 -- -- 20
2019-06-08 13:00:00 23.6 8 Sudeste 22 Este 0 -- -- 21
2019-06-08 12:00:00 22.9 6 Sudoeste 18 Sudoeste 0 -- -- 23
2019-06-08 11:00:00 21.3 3 Norte 12 Norte 0 -- -- 26
2019-06-08 10:00:00 18.5 4 Norte 10 Norte 0 -- -- 32
2019-06-08 09:00:00 15.3 4 Noroeste 8 Noroeste 0 -- -- 39
2019-06-08 08:00:00 11.7 0 Calma 3 Sur 0 -- -- 46
2019-06-08 07:00:00 9.5 0 Calma 5 Sudoeste 0 -- -- 47
2019-06-08 06:00:00 10.5 2 Sur 6 Oeste 0 -- -- 43
2019-06-08 05:00:00 11.1 4 Sur 7 Sudoeste 0 -- -- 42
2019-06-08 04:00:00 10.8 2 Sur 4 Sur 0 -- -- 41
2019-06-08 03:00:00 12 2 Este 5 Este 0 -- -- 36
2019-06-08 02:00:00 13.6 4 Nordeste 7 Norte 0 -- -- 31
2019-06-08 01:00:00 14.9 2 Noroeste 10 Noroeste 0 -- -- 29
2019-06-08 00:00:00 15.6 5 Noroeste 10 Oeste 0 -- -- 27
2019-06-07 23:00:00 16.7 4 Noroeste 10 Oeste 0 -- -- 25
2019-06-07 22:00:00 17.8 6 Noroeste 18 Noroeste 0 -- -- 23
2019-06-07 21:00:00 21 8 Noroeste 21 Oeste 0 -- -- 21
2019-06-07 20:00:00 21.9 12 Noroeste 23 Oeste 0 -- -- 21
2019-06-07 19:00:00 22.1 14 Noroeste 27 Oeste 0 -- -- 21
2019-06-07 18:00:00 22.7 14 Oeste 28 Oeste 0 -- -- 21
2019-06-07 17:00:00 21 16 Oeste 28 Oeste 0 -- -- 23
2019-06-07 16:00:00 20.5 11 Oeste 24 Noroeste 0 -- -- 24
2019-06-07 15:00:00 19.8 13 Sudoeste 29 Noroeste 0 -- -- 25
2019-06-07 14:00:00 18.5 7 Oeste 35 Oeste 0 -- -- 27
2019-06-07 13:00:00 17.3 12 Oeste 29 Oeste 0 -- -- 30
2019-06-07 12:00:00 15.6 12 Oeste 32 Oeste 0 -- -- 36
2019-06-07 11:00:00 13.2 15 Oeste 26 Oeste 0 -- -- 49
2019-06-07 10:00:00 12.4 9 Oeste 20 Sudoeste 0 -- -- 69
2019-06-07 09:00:00 10.4 14 Oeste 22 Oeste 0 -- -- 84
2019-06-07 08:00:00 9 13 Sudoeste 19 Sudoeste 0 -- -- 86
2019-06-07 07:00:00 8.1 4 Sudoeste 17 Sudoeste 0 -- -- 86
2019-06-07 06:00:00 8.3 9 Sudoeste 21 Sudoeste 0 -- -- 85
2019-06-07 05:00:00 9 15 Sudoeste 27 Oeste 0 -- -- 85
2019-06-07 04:00:00 10.3 21 Oeste 31 Sudoeste 0 -- -- 84
2019-06-07 03:00:00 11.3 18 Sudoeste 27 Sudoeste 0 -- -- 85
2019-06-07 02:00:00 11.2 12 Sudoeste 35 Sudoeste 0.1 -- -- 85
2019-06-07 01:00:00 11.7 22 Sudoeste 47 Sudoeste 0.6 -- -- 87
2019-06-07 00:00:00 16.8 21 Sudoeste 44 Sudoeste 0 -- -- 59
2019-06-06 23:00:00 18 21 Sudoeste 44 Sur 0 -- -- 49
2019-06-06 22:00:00 19.1 23 Sudoeste 40 Sudoeste 0 -- -- 42
2019-06-06 21:00:00 20.2 20 Sudoeste 45 Sur 0 -- -- 38
2019-06-06 20:00:00 21.7 17 Sur 41 Sudoeste 0 -- -- 33
2019-06-06 19:00:00 23.4 19 Sudoeste 41 Sudoeste 0 -- -- 30
2019-06-06 18:00:00 23.5 14 Sur 35 Sudeste 0 -- -- 30
2019-06-06 17:00:00 23.4 11 Sur 31 Sudoeste 0 -- -- 29
2019-06-06 16:00:00 22.3 15 Sur 36 Sur 0 -- -- 30
2019-06-06 15:00:00 21.9 8 Sur 27 Sudeste 0 -- -- 31
2019-06-06 14:00:00 19.7 8 Sur 28 Sur 0 -- -- 35
2019-06-06 13:00:00 19.2 9 Sudoeste 25 Sudoeste 0 -- -- 37
2019-06-06 12:00:00 17.6 10 Sudoeste 23 Sur 0 -- -- 41
2019-06-06 11:00:00 15.2 6 Sur 18 Sur 0 -- -- 49
2019-06-06 10:00:00 13.3 5 Sur 12 Sur 0 -- -- 56
2019-06-06 09:00:00 11.2 6 Sudeste 12 Sur 0 -- -- 63
2019-06-06 08:00:00 9.5 4 Sudeste 10 Sudeste 0 -- -- 67
2019-06-06 07:00:00 8.5 4 Sudeste 9 Sur 0 -- -- 66
2019-06-06 06:00:00 9 4 Sur 12 Sudoeste 0 -- -- 64
2019-06-06 05:00:00 10 9 Sudoeste 17 Sudoeste 0 -- -- 62
2019-06-06 04:00:00 10.3 8 Sudoeste 13 Sudoeste 0 -- -- 58
2019-06-06 03:00:00 11.1 7 Sudoeste 14 Sudoeste 0 -- -- 52
2019-06-06 02:00:00 12 5 Sudoeste 18 Sudoeste 0 -- -- 46
2019-06-06 01:00:00 12.8 11 Sudoeste 20 Oeste 0 -- -- 42
2019-06-06 00:00:00 14.3 14 Oeste 23 Oeste 0 -- -- 38
2019-06-05 23:00:00 15.6 16 Oeste 23 Sudoeste 0 -- -- 35
2019-06-05 22:00:00 17.2 14 Oeste 27 Sudoeste 0 -- -- 32
2019-06-05 21:00:00 19 18 Oeste 35 Sudoeste 0 -- -- 30
2019-06-05 20:00:00 20.9 16 Oeste 34 Oeste 0 -- -- 27
2019-06-05 19:00:00 21.1 21 Oeste 35 Oeste 0 -- -- 28
2019-06-05 18:00:00 21.4 20 Oeste 37 Sudoeste 0 -- -- 28
2019-06-05 17:00:00 21.2 16 Oeste 42 Oeste 0 -- -- 30
2019-06-05 16:00:00 19.5 24 Oeste 38 Sudoeste 0 -- -- 31
2019-06-05 15:00:00 20.5 26 Oeste 44 Oeste 0 -- -- 33
2019-06-05 14:00:00 18.6 18 Oeste 39 Oeste 0 -- -- 37
2019-06-05 13:00:00 17.6 24 Oeste 37 Oeste 0 -- -- 40
2019-06-05 12:00:00 16 22 Oeste 40 Oeste 0 -- -- 42
2019-06-05 11:00:00 15.5 21 Oeste 39 Oeste 0 -- -- 45
2019-06-05 10:00:00 13.7 20 Oeste 38 Sudoeste 0 -- -- 54
2019-06-05 09:00:00 11.7 20 Oeste 30 Oeste 0 -- -- 67
2019-06-05 08:00:00 10.3 18 Sudoeste 26 Oeste 0 -- -- 76
2019-06-05 07:00:00 9.3 16 Oeste 26 Sudoeste 0 -- -- 75
2019-06-05 06:00:00 10.2 17 Sudoeste 27 Sudoeste 0 -- -- 71
2019-06-05 05:00:00 10.7 19 Oeste 28 Oeste 0 -- -- 65
2019-06-05 04:00:00 11.7 19 Oeste 36 Oeste 0 -- -- 61
2019-06-05 03:00:00 12.2 21 Sudoeste 35 Sudoeste 0 -- -- 59
2019-06-05 02:00:00 12.3 17 Sudoeste 41 Sudoeste 0 -- -- 57
2019-06-05 01:00:00 13.4 23 Sudoeste 40 Sudoeste 0 -- -- 50
2019-06-05 00:00:00 15.9 23 Sudoeste 52 Sudoeste 0 -- -- 49
2019-06-04 23:00:00 17.3 32 Oeste 46 Sudoeste 0 -- -- 49
2019-06-04 22:00:00 18.1 22 Oeste 33 Oeste 0 -- -- 52
2019-06-04 21:00:00 19.7 24 Oeste 39 Sudoeste 0 -- -- 48
2019-06-04 20:00:00 20 30 Oeste 46 Oeste 0 -- -- 51
2019-06-04 19:00:00 23 30 Oeste 42 Oeste 0 -- -- 39
2019-06-04 18:00:00 24.2 23 Oeste 39 Oeste 0 -- -- 36
2019-06-04 17:00:00 25.7 16 Sudoeste 33 Oeste 0 -- -- 35
2019-06-04 16:00:00 25.9 16 Sudoeste 37 Sudoeste 0 -- -- 35
2019-06-04 15:00:00 25.3 15 Sudoeste 36 Oeste 0 -- -- 36
2019-06-04 14:00:00 24.6 14 Sudoeste 32 Sudoeste 0 -- -- 39
2019-06-04 13:00:00 23 12 Sudoeste 26 Sudoeste 0 -- -- 43
2019-06-04 12:00:00 21.9 9 Sudoeste 24 Sur 0 -- -- 45
2019-06-04 11:00:00 19.6 11 Sudoeste 26 Sudoeste 0 -- -- 55
2019-06-04 10:00:00 18.3 13 Sudoeste 22 Sudoeste 0 -- -- 61
2019-06-04 09:00:00 17.2 9 Sudoeste 20 Sudoeste 0 -- -- 69
2019-06-04 08:00:00 15.9 8 Sudoeste 17 Sudoeste 0 -- -- 75
2019-06-04 07:00:00 15.6 9 Sudoeste 18 Sudoeste 0 -- -- 75
2019-06-04 06:00:00 16.4 4 Sur 12 Sur 0 -- -- 71
2019-06-04 05:00:00 17.4 4 Sur 9 Sudeste 0 -- -- 66
2019-06-04 04:00:00 18.5 4 Sur 13 Sudoeste 0 -- -- 63
2019-06-04 03:00:00 18.8 5 Sur 18 Sudoeste 0 -- -- 62
2019-06-04 02:00:00 19.8 13 Sudoeste 21 Oeste 0 -- -- 60
2019-06-04 01:00:00 21.8 9 Sudoeste 18 Sudoeste 0 -- -- 50
2019-06-04 00:00:00 23.4 8 Sudoeste 18 Oeste 0 -- -- 42
2019-06-03 23:00:00 24.5 14 Oeste 28 Sudoeste 0 -- -- 35
2019-06-03 22:00:00 26.4 17 Sudoeste 30 Sudoeste 0 -- -- 29
2019-06-03 21:00:00 29.2 22 Sudoeste 37 Sudoeste 0 -- -- 24
2019-06-03 20:00:00 31.3 24 Sudoeste 37 Oeste 0 -- -- 21
2019-06-03 19:00:00 33.2 15 Sudoeste 35 Sudoeste 0 -- -- 20
2019-06-03 18:00:00 33.3 18 Sudoeste 36 Sudoeste 0 -- -- 20
2019-06-03 17:00:00 32.9 14 Sur 39 Sur 0 -- -- 20
2019-06-03 16:00:00 32.9 15 Sudoeste 41 Sudoeste 0 -- -- 20
2019-06-03 15:00:00 32.6 15 Sudoeste 36 Sudoeste 0 -- -- 20
2019-06-03 14:00:00 31.5 16 Sudoeste 33 Sudoeste 0 -- -- 21
2019-06-03 13:00:00 30.3 6 Sur 23 Sur 0 -- -- 24
2019-06-03 12:00:00 28.6 6 Sur 21 Sudoeste 0 -- -- 25
2019-06-03 11:00:00 26.2 6 Sur 17 Sur 0 -- -- 32
2019-06-03 10:00:00 23.2 5 Sur 12 Sur 0 -- -- 38
2019-06-03 09:00:00 19.7 5 Sudeste 10 Sudeste 0 -- -- 41
2019-06-03 08:00:00 18.6 0 Calma 3 Sudeste 0 -- -- 43
2019-06-03 07:00:00 18.2 0 Calma 5 Sur 0 -- -- 41
2019-06-03 06:00:00 19.6 4 Sudeste 11 Sudeste 0 -- -- 38
2019-06-03 05:00:00 20.8 3 Sur 8 Sur 0 -- -- 35
2019-06-03 04:00:00 21.9 4 Sur 11 Sudeste 0 -- -- 34
2019-06-03 03:00:00 22.6 4 Sur 10 Sur 0 -- -- 32
2019-06-03 02:00:00 23.6 8 Sudoeste 13 Sudoeste 0 -- -- 30
2019-06-03 01:00:00 24.4 5 Sudoeste 9 Oeste 0 -- -- 29
2019-06-03 00:00:00 25.4 8 Oeste 18 Oeste 0 -- -- 26
2019-06-02 23:00:00 26.9 8 Oeste 31 Oeste 0 -- -- 24
2019-06-02 22:00:00 28.7 16 Oeste 33 Oeste 0 -- -- 23
2019-06-02 21:00:00 31.2 24 Oeste 33 Oeste 0 -- -- 22
2019-06-02 20:00:00 34 3 Sudoeste 22 Sudoeste 0 -- -- 21
2019-06-02 19:00:00 34.9 7 Sudoeste 26 Oeste 0 -- -- 21
2019-06-02 18:00:00 35.4 5 Sudoeste 18 Sudeste 0 -- -- 23
2019-06-02 17:00:00 33.4 0 Calma 22 Oeste 0 -- -- 23
2019-06-02 16:00:00 34.9 3 Sur 18 Sur 0 -- -- 23
2019-06-02 15:00:00 32.4 5 Sudeste 19 Sudoeste 0 -- -- 25
2019-06-02 14:00:00 31.5 4 Sur 21 Sudeste 0 -- -- 26
2019-06-02 13:00:00 30.4 6 Sur 22 Sudoeste 0 -- -- 27
2019-06-02 12:00:00 28.2 8 Sudeste 19 Sudeste 0 -- -- 29
2019-06-02 11:00:00 26.2 7 Sudeste 16 Sudeste 0 -- -- 31
2019-06-02 10:00:00 24.8 9 Sudeste 22 Sudeste 0 -- -- 32
2019-06-02 09:00:00 22.7 13 Sudeste 25 Sudeste 0 -- -- 34
2019-06-02 08:00:00 20.6 8 Sudeste 19 Sur 0 -- -- 35
2019-06-02 07:00:00 20.4 8 Sur 20 Sudeste 0 -- -- 34
2019-06-02 06:00:00 22.5 6 Sur 14 Sur 0 -- -- 32
2019-06-02 05:00:00 23.1 8 Sudeste 15 Este 0 -- -- 30
2019-06-02 04:00:00 23.6 8 Sudeste 20 Sudeste 0 -- -- 31
2019-06-02 03:00:00 22.7 0 Calma 10 Oeste 0 -- -- 30
2019-06-02 02:00:00 23.6 5 Sur 7 Sudoeste 0 -- -- 31
2019-06-02 01:00:00 23 2 Sudeste 5 Sur 0 -- -- 31
2019-06-02 00:00:00 24.8 0 Calma 5 Sudoeste 0 -- -- 28
2019-06-01 23:00:00 26.5 0 Calma 9 Sudoeste 0 -- -- 26
2019-06-01 22:00:00 29.5 3 Sudoeste 10 Sur 0 -- -- 23
2019-06-01 21:00:00 31.8 4 Sur 12 Sur 0 -- -- 21
2019-06-01 20:00:00 34.1 4 Norte 19 Noroeste 0 -- -- 20
2019-06-01 19:00:00 35.3 2 Sur 23 Este 0 -- -- 20
2019-06-01 18:00:00 34.6 4 Noroeste 19 Noroeste 0 -- -- 20
2019-06-01 17:00:00 34 10 Noroeste 27 Noroeste 0 -- -- 20
2019-06-01 16:00:00 33.9 3 Sudoeste 18 Sur 0 -- -- 20
2019-06-01 15:00:00 33.2 0 Calma 17 Oeste 0 -- -- 21
2019-06-01 14:00:00 32.2 4 Noroeste 14 Oeste 0 -- -- 22
2019-06-01 13:00:00 31 6 Sudeste 17 Sudeste 0 -- -- 23
2019-06-01 12:00:00 30.1 4 Noroeste 12 Oeste 0 -- -- 24
2019-06-01 11:00:00 28.3 0 Calma 12 Sudeste 0 -- -- 26
2019-06-01 10:00:00 27 3 Este 11 Este 0 -- -- 29
2019-06-01 09:00:00 24.4 6 Este 19 Este 0 -- -- 30
2019-06-01 08:00:00 21.5 17 Este 24 Este 0 -- -- 32
2019-06-01 07:00:00 20.5 5 Sur 17 Sudeste 0 -- -- 31
2019-06-01 06:00:00 22.6 6 Sudeste 21 Sudeste 0 -- -- 27
2019-06-01 05:00:00 23.9 14 Sudeste 24 Sudeste 0 -- -- 26
2019-06-01 04:00:00 24.2 13 Sudeste 21 Sudeste 0 -- -- 26
2019-06-01 03:00:00 23.9 7 Sudeste 19 Sudeste 0 -- -- 26
2019-06-01 02:00:00 24.8 12 Sudeste 19 Sudeste 0 -- -- 26
2019-06-01 01:00:00 24.3 11 Este 15 Sudeste 0 -- -- 28
2019-06-01 00:00:00 25.2 6 Este 8 Este 0 -- -- 28
2019-05-31 23:00:00 25.4 6 Este 8 Norte 0 -- -- 27
2019-05-31 22:00:00 28.9 4 Norte 14 Norte 0 -- -- 24
2019-05-31 21:00:00 32.2 6 Norte 20 Norte 0 -- -- 22
2019-05-31 20:00:00 33.4 8 Norte 20 Nordeste 0 -- -- 20
2019-05-31 19:00:00 34 4 Noroeste 23 Norte 0 -- -- 20
2019-05-31 18:00:00 33.9 8 Norte 26 Nordeste 0 -- -- 20
2019-05-31 17:00:00 33.1 8 Norte 22 Norte 0 -- -- 21
2019-05-31 16:00:00 32.6 10 Nordeste 24 Nordeste 0 -- -- 22
2019-05-31 15:00:00 32.1 5 Noroeste 22 Norte 0 -- -- 23
2019-05-31 14:00:00 30.6 9 Nordeste 23 Este 0 -- -- 24
2019-05-31 13:00:00 30.1 2 Norte 13 Noroeste 0 -- -- 26
2019-05-31 12:00:00 28.4 5 Sudeste 15 Este 0 -- -- 27
2019-05-31 11:00:00 26.9 0 Calma 8 Este 0 -- -- 29
2019-05-31 10:00:00 24.9 4 Nordeste 9 Nordeste 0 -- -- 32
2019-05-31 09:00:00 22.9 3 Sur 9 Sur 0 -- -- 35
2019-05-31 08:00:00 19.3 3 Sur 7 Sudeste 0 -- -- 38
2019-05-31 07:00:00 17 3 Sudeste 7 Sur 0 -- -- 38
2019-05-31 06:00:00 18.5 0 Calma 17 Nordeste 0 -- -- 33
2019-05-31 05:00:00 21.2 4 Este 18 Este 0 -- -- 30
2019-05-31 04:00:00 23.2 13 Sudeste 20 Sudeste 0 -- -- 30
2019-05-31 03:00:00 22.8 11 Sudeste 16 Sudeste 0 -- -- 30
2019-05-31 02:00:00 22.3 2 Este 12 Este 0 -- -- 29
2019-05-31 01:00:00 22.4 5 Este 10 Este 0 -- -- 29
2019-05-31 00:00:00 22.2 3 Este 7 Norte 0 -- -- 27
2019-05-30 23:00:00 24.1 5 Nordeste 10 Este 0 -- -- 24
2019-05-30 22:00:00 26.8 5 Nordeste 16 Norte 0 -- -- 22
2019-05-30 21:00:00 30.9 8 Norte 21 Norte 0 -- -- 20
2019-05-30 20:00:00 32.1 10 Norte 26 Norte 0 -- -- 20
2019-05-30 19:00:00 32.2 8 Nordeste 22 Norte 0 -- -- 20
2019-05-30 18:00:00 32.2 8 Nordeste 30 Norte 0 -- -- 20
2019-05-30 17:00:00 31.5 13 Norte 28 Nordeste 0 -- -- 22
2019-05-30 16:00:00 31.1 10 Norte 27 Nordeste 0 -- -- 23
2019-05-30 15:00:00 30.2 8 Nordeste 27 Norte 0 -- -- 24
2019-05-30 14:00:00 28.8 12 Nordeste 35 Norte 0 -- -- 25
2019-05-30 13:00:00 27.8 11 Norte 30 Norte 0 -- -- 26
2019-05-30 12:00:00 26.5 13 Norte 26 Norte 0 -- -- 27
2019-05-30 11:00:00 25.6 10 Nordeste 23 Norte 0 -- -- 29
2019-05-30 10:00:00 23.9 10 Nordeste 21 Nordeste 0 -- -- 31
2019-05-30 09:00:00 21.5 10 Nordeste 23 Nordeste 0 -- -- 34
2019-05-30 08:00:00 18.3 8 Nordeste 15 Norte 0 -- -- 38
2019-05-30 07:00:00 16.3 6 Nordeste 15 Norte 0 -- -- 42
2019-05-30 06:00:00 17.4 6 Nordeste 13 Nordeste 0 -- -- 39
2019-05-30 05:00:00 18.5 6 Nordeste 15 Nordeste 0 -- -- 37
2019-05-30 04:00:00 18.9 8 Nordeste 14 Nordeste 0 -- -- 36
2019-05-30 03:00:00 17.7 8 Nordeste 14 Nordeste 0 -- -- 35
2019-05-30 02:00:00 19.1 6 Nordeste 12 Nordeste 0 -- -- 34
2019-05-30 01:00:00 19.7 6 Nordeste 16 Este 0 -- -- 34
2019-05-30 00:00:00 20.8 8 Nordeste 14 Nordeste 0 -- -- 32
2019-05-29 23:00:00 22.6 6 Nordeste 9 Nordeste 0 -- -- 30
2019-05-29 22:00:00 25 6 Norte 15 Norte 0 -- -- 28
2019-05-29 21:00:00 28.2 9 Norte 25 Noroeste 0 -- -- 25
2019-05-29 20:00:00 29.5 8 Norte 23 Nordeste 0 -- -- 25
2019-05-29 19:00:00 30 11 Nordeste 25 Norte 0 -- -- 24
2019-05-29 18:00:00 29.7 9 Nordeste 32 Norte 0 -- -- 24
2019-05-29 17:00:00 28.9 13 Nordeste 31 Norte 0 -- -- 24
2019-05-29 16:00:00 28.4 14 Nordeste 33 Norte 0 -- -- 25
2019-05-29 15:00:00 27.7 14 Nordeste 36 Nordeste 0 -- -- 26
2019-05-29 14:00:00 26.3 16 Nordeste 35 Norte 0 -- -- 27
2019-05-29 13:00:00 25.6 14 Nordeste 34 Norte 0 -- -- 29
2019-05-29 12:00:00 23.7 16 Norte 30 Norte 0 -- -- 31
2019-05-29 11:00:00 23.2 10 Nordeste 24 Nordeste 0 -- -- 32
2019-05-29 10:00:00 21.1 5 Sudeste 15 Este 0 -- -- 35
2019-05-29 09:00:00 19.9 6 Nordeste 17 Norte 0 -- -- 37
2019-05-29 08:00:00 17.3 5 Norte 9 Norte 0 -- -- 40
2019-05-29 07:00:00 15.3 5 Nordeste 14 Norte 0 -- -- 39
2019-05-29 06:00:00 16.2 5 Nordeste 10 Este 0 -- -- 38
2019-05-29 05:00:00 17.1 6 Nordeste 14 Nordeste 0 -- -- 35
2019-05-29 04:00:00 18.5 7 Norte 16 Norte 0 -- -- 33
2019-05-29 03:00:00 19.3 5 Nordeste 18 Nordeste 0 -- -- 32
2019-05-29 02:00:00 20.3 11 Nordeste 21 Nordeste 0 -- -- 32
2019-05-29 01:00:00 20.9 10 Nordeste 22 Norte 0 -- -- 31
2019-05-29 00:00:00 21.5 11 Norte 21 Norte 0 -- -- 29
2019-05-28 23:00:00 23.3 13 Norte 22 Norte 0 -- -- 28
2019-05-28 22:00:00 24.3 8 Noroeste 22 Noroeste 0 -- -- 26
2019-05-28 21:00:00 27.8 17 Noroeste 28 Noroeste 0 -- -- 24
2019-05-28 20:00:00 29.3 17 Noroeste 35 Oeste 0 -- -- 23
2019-05-28 19:00:00 29.8 19 Noroeste 30 Noroeste 0 -- -- 23
2019-05-28 18:00:00 30.5 11 Noroeste 31 Noroeste 0 -- -- 24
2019-05-28 17:00:00 30.3 11 Oeste 35 Oeste 0 -- -- 25
2019-05-28 16:00:00 29.4 11 Noroeste 27 Noroeste 0 -- -- 26
2019-05-28 15:00:00 28.8 12 Noroeste 28 Noroeste 0 -- -- 29
2019-05-28 14:00:00 27.4 16 Noroeste 31 Noroeste 0 -- -- 32
2019-05-28 13:00:00 27.6 8 Noroeste 24 Oeste 0 -- -- 32
2019-05-28 12:00:00 26.7 7 Norte 18 Norte 0 -- -- 35
2019-05-28 11:00:00 25.5 5 Norte 16 Este 0 -- -- 36
2019-05-28 10:00:00 24.5 5 Norte 15 Nordeste 0 -- -- 39
2019-05-28 09:00:00 20.5 8 Nordeste 16 Nordeste 0 -- -- 46
2019-05-28 08:00:00 17.2 7 Nordeste 16 Nordeste 0 -- -- 53
2019-05-28 07:00:00 14.8 0 Calma 5 Sudeste 0 -- -- 55
2019-05-28 06:00:00 16.3 2 Sudeste 4 Sur 0 -- -- 50
2019-05-28 05:00:00 16.7 3 Sur 6 Sur 0 -- -- 47
2019-05-28 04:00:00 17.5 4 Sudeste 9 Sur 0 -- -- 43
2019-05-28 03:00:00 18.7 0 Calma 6 Sudoeste 0 -- -- 41
2019-05-28 02:00:00 20.2 4 Sudoeste 7 Sudoeste 0 -- -- 38
2019-05-28 01:00:00 21.5 3 Oeste 10 Noroeste 0 -- -- 36
2019-05-28 00:00:00 22.8 4 Noroeste 12 Noroeste 0 -- -- 34